Hamburg, Arkansas
Current Conditions -  °F | °C
As of 7:53 PM on Wednesday 26 Nov 2014 (Local Time) from KLLQ Reporting Station
Clear Clear  
Wind Chill: 11°   Ceiling: Unl
Heat Index: 11°   Visibility: 10mi
Dew Point: -1°   Wind: 7mph
Humidity: 44%   Direction: 280°W
Pressure: 30.2"   Gusts: NA
Location:  33.23°N, 91.8°W
Report Text: KLLQ 270153Z AUTO 28006KT 10SM CLR 11/M01 A3020 RMK AO2 SLP226 T01061011
Loading
Personal Weather Stations






























Interactive Weather Map New forecast layout! Learn more

10-Day Weather Forecast

Advertisements
Track Severe Weather on mobile